createdAt,value
2022-10-07T00:00:18.026Z,2.20
2022-10-07T00:02:48.635Z,3.90
2022-10-07T00:05:19.572Z,5.30
2022-10-07T00:07:50.204Z,6.60
2022-10-07T00:10:20.836Z,3.00
2022-10-07T00:12:51.468Z,6.40
2022-10-07T00:15:23.800Z,2.70
2022-10-07T00:17:54.473Z,2.20
2022-10-07T00:20:25.102Z,4.50
2022-10-07T00:22:55.738Z,3.30
2022-10-07T00:25:26.366Z,3.40
2022-10-07T00:27:57.017Z,3.10
2022-10-07T00:30:27.976Z,2.90
2022-10-07T00:32:58.673Z,2.30
2022-10-07T00:35:29.123Z,4.40
2022-10-07T00:37:59.546Z,2.20
2022-10-07T00:40:30.205Z,2.40
2022-10-07T00:43:00.809Z,2.80
2022-10-07T00:45:31.896Z,3.00
2022-10-07T00:48:02.336Z,1.70
2022-10-07T00:50:32.902Z,3.40
2022-10-07T00:53:04.019Z,2.00
2022-10-07T00:55:35.367Z,4.30
2022-10-07T00:58:09.369Z,2.80
2022-10-07T01:00:40.590Z,3.50
2022-10-07T01:03:11.141Z,5.00
2022-10-07T01:05:41.646Z,2.50
2022-10-07T01:08:15.695Z,3.70
2022-10-07T01:10:55.211Z,1.90
2022-10-07T01:13:32.580Z,2.30
2022-10-07T01:16:11.167Z,3.20
2022-10-07T01:18:47.273Z,8.00
2022-10-07T01:21:32.107Z,3.10
2022-10-07T01:24:18.310Z,2.70
2022-10-07T01:26:54.134Z,3.30
2022-10-07T01:29:30.461Z,3.20
2022-10-07T01:32:06.783Z,3.00
2022-10-07T01:34:40.209Z,3.30
2022-10-07T01:37:15.071Z,3.50
2022-10-07T01:39:49.785Z,4.80
2022-10-07T01:42:21.838Z,3.10
2022-10-07T01:44:55.109Z,5.60
2022-10-07T01:47:26.110Z,3.00
2022-10-07T01:49:56.790Z,4.20
2022-10-07T01:52:52.778Z,3.20
2022-10-07T01:55:38.846Z,4.40
2022-10-07T01:58:22.416Z,3.50
2022-10-07T02:01:01.192Z,3.20
2022-10-07T02:03:47.740Z,3.50
2022-10-07T02:06:29.257Z,5.80
2022-10-07T02:09:03.247Z,3.40
2022-10-07T02:11:39.700Z,4.50
2022-10-07T02:14:15.928Z,4.40
2022-10-07T02:16:49.522Z,4.10
2022-10-07T02:19:24.016Z,5.60
2022-10-07T02:21:57.597Z,3.90
2022-10-07T02:24:33.913Z,5.20
2022-10-07T02:27:09.749Z,3.80
2022-10-07T02:29:43.466Z,4.60
2022-10-07T02:32:18.983Z,4.50
2022-10-07T02:34:54.365Z,2.10
2022-10-07T02:37:28.125Z,3.00
2022-10-07T02:39:59.486Z,2.60
2022-10-07T02:42:36.744Z,4.40
2022-10-07T02:45:16.730Z,4.60
2022-10-07T02:47:52.184Z,3.10
2022-10-07T02:50:27.246Z,2.10
2022-10-07T02:52:59.003Z,3.70
2022-10-07T02:55:32.076Z,2.40
2022-10-07T02:58:06.166Z,3.00
2022-10-07T03:00:40.605Z,2.80
2022-10-07T03:03:11.534Z,3.50
2022-10-07T03:05:42.052Z,3.00
2022-10-07T03:08:14.187Z,3.80
2022-10-07T03:10:44.850Z,3.20
2022-10-07T03:13:15.658Z,2.90
2022-10-07T03:15:46.772Z,2.70
2022-10-07T03:18:28.338Z,4.00
2022-10-07T03:21:01.143Z,7.10
2022-10-07T03:23:31.928Z,2.80
2022-10-07T03:26:02.609Z,6.10
2022-10-07T03:28:37.531Z,3.70
2022-10-07T03:31:10.203Z,3.20
2022-10-07T03:33:41.400Z,3.70
2022-10-07T03:36:13.629Z,3.70
2022-10-07T03:38:44.253Z,4.00
2022-10-07T03:41:14.639Z,3.20
2022-10-07T03:43:44.973Z,4.10
2022-10-07T03:46:16.829Z,2.80
2022-10-07T03:48:47.256Z,4.10
2022-10-07T03:51:17.633Z,3.60
2022-10-07T03:53:48.280Z,3.60
2022-10-07T03:56:19.010Z,4.20
2022-10-07T03:58:50.017Z,4.50
2022-10-07T04:01:20.416Z,3.80
2022-10-07T04:03:50.835Z,3.40
2022-10-07T04:06:21.264Z,3.00
2022-10-07T04:08:55.176Z,4.00
2022-10-07T04:11:26.037Z,2.70
2022-10-07T04:14:00.345Z,3.90
2022-10-07T04:16:34.730Z,3.40
2022-10-07T04:19:07.911Z,5.10
2022-10-07T04:21:38.794Z,3.10
2022-10-07T04:24:09.647Z,3.40
2022-10-07T04:26:40.375Z,3.20
2022-10-07T04:29:10.700Z,6.10
2022-10-07T04:31:41.226Z,3.00
2022-10-07T04:34:11.757Z,3.70
2022-10-07T04:36:42.186Z,6.40
2022-10-07T04:39:13.422Z,3.40
2022-10-07T04:41:44.304Z,2.70
2022-10-07T04:44:14.947Z,4.40
2022-10-07T04:46:45.420Z,3.00
2022-10-07T04:49:16.041Z,2.70
2022-10-07T04:51:48.235Z,2.40
2022-10-07T04:54:18.898Z,3.90
2022-10-07T04:56:51.129Z,4.30
2022-10-07T04:59:23.758Z,5.00
2022-10-07T05:01:56.072Z,3.20
2022-10-07T05:04:26.847Z,2.40
2022-10-07T05:06:57.373Z,2.60
2022-10-07T05:09:28.261Z,3.10
2022-10-07T05:11:58.695Z,7.20
2022-10-07T05:14:29.543Z,4.50
2022-10-07T05:17:00.108Z,5.30
2022-10-07T05:19:30.544Z,3.30
2022-10-07T05:22:00.914Z,3.50
2022-10-07T05:24:31.379Z,3.50
2022-10-07T05:27:02.126Z,3.60
2022-10-07T05:29:33.317Z,3.20
2022-10-07T05:32:05.356Z,6.00
2022-10-07T05:34:36.187Z,3.00
2022-10-07T05:37:06.750Z,2.40
2022-10-07T05:39:37.386Z,4.00
2022-10-07T05:42:08.880Z,6.60
2022-10-07T05:44:39.590Z,4.00
2022-10-07T05:47:09.986Z,5.50
2022-10-07T05:49:41.541Z,5.20
2022-10-07T05:52:12.238Z,9.20
2022-10-07T05:54:42.572Z,4.60
2022-10-07T05:57:13.317Z,4.60
2022-10-07T05:59:44.184Z,3.70
2022-10-07T06:02:17.061Z,3.10
2022-10-07T06:04:49.384Z,4.30
2022-10-07T06:07:21.972Z,3.30
2022-10-07T06:10:11.676Z,4.80
2022-10-07T06:12:59.592Z,3.30
2022-10-07T06:15:32.779Z,2.30
2022-10-07T06:18:03.181Z,2.90
2022-10-07T06:20:33.557Z,3.80
2022-10-07T06:23:05.041Z,4.30
2022-10-07T06:25:35.858Z,3.70
2022-10-07T06:28:07.151Z,4.00
2022-10-07T06:30:39.964Z,2.50
2022-10-07T06:33:10.720Z,3.90
2022-10-07T06:35:41.127Z,3.30
2022-10-07T06:38:11.505Z,3.30
2022-10-07T06:40:42.623Z,7.10
2022-10-07T06:43:13.577Z,3.20
2022-10-07T06:45:44.552Z,2.70
2022-10-07T06:48:15.757Z,3.70
2022-10-07T06:50:53.245Z,4.30
2022-10-07T06:53:24.735Z,3.40
2022-10-07T06:55:57.739Z,4.10
2022-10-07T06:58:28.897Z,3.10
2022-10-07T07:01:00.680Z,5.20
2022-10-07T07:03:31.775Z,4.90
2022-10-07T07:06:02.644Z,5.80
2022-10-07T07:08:33.006Z,3.50
2022-10-07T07:11:27.494Z,4.70
2022-10-07T07:13:58.277Z,5.60
2022-10-07T07:16:29.911Z,5.00
2022-10-07T07:19:02.896Z,3.20
2022-10-07T07:21:34.512Z,3.10
2022-10-07T07:24:05.590Z,4.70
2022-10-07T07:26:37.791Z,2.30
2022-10-07T07:29:09.620Z,3.10
2022-10-07T07:31:40.409Z,2.40
2022-10-07T07:34:12.790Z,3.10
2022-10-07T07:36:46.709Z,3.50
2022-10-07T07:39:19.130Z,3.70
2022-10-07T07:41:51.022Z,2.20
2022-10-07T07:44:21.682Z,6.50
2022-10-07T07:46:53.816Z,2.90
2022-10-07T07:49:25.224Z,3.60
2022-10-07T07:51:56.726Z,3.20
2022-10-07T07:54:28.380Z,8.50
2022-10-07T07:57:00.215Z,14.70
2022-10-07T07:59:33.054Z,4.40
2022-10-07T08:02:03.686Z,5.50
2022-10-07T08:04:34.338Z,7.90
2022-10-07T08:07:04.745Z,8.90
2022-10-07T08:09:35.170Z,6.70
2022-10-07T08:12:06.069Z,4.70
2022-10-07T08:14:37.068Z,6.50
2022-10-07T08:17:07.455Z,3.80
2022-10-07T08:19:38.620Z,3.60
2022-10-07T08:22:09.541Z,4.50
2022-10-07T08:24:40.333Z,3.20
2022-10-07T08:27:10.709Z,3.40
2022-10-07T08:29:41.502Z,3.00
2022-10-07T08:32:11.976Z,4.20
2022-10-07T08:34:42.351Z,3.80
2022-10-07T08:37:13.076Z,4.20
2022-10-07T08:39:43.518Z,2.40
2022-10-07T08:42:18.116Z,4.90
2022-10-07T08:44:51.702Z,2.40
2022-10-07T08:47:30.391Z,2.20
2022-10-07T08:50:09.807Z,2.20
2022-10-07T08:52:54.822Z,2.40
2022-10-07T08:55:36.610Z,3.50
2022-10-07T08:58:33.244Z,3.50
2022-10-07T09:01:15.487Z,5.40
2022-10-07T09:03:53.896Z,2.80
2022-10-07T09:06:31.876Z,1.50
2022-10-07T09:09:42.212Z,3.40
2022-10-07T09:12:23.131Z,2.70
2022-10-07T09:14:57.086Z,2.10
2022-10-07T09:17:45.282Z,2.30
2022-10-07T09:20:18.930Z,2.10
2022-10-07T09:22:53.340Z,3.90
2022-10-07T09:25:25.893Z,3.40
2022-10-07T09:27:56.617Z,2.80
2022-10-07T09:30:29.530Z,3.20
2022-10-07T09:32:59.960Z,7.30
2022-10-07T09:35:33.645Z,3.10
2022-10-07T09:38:09.264Z,3.10
2022-10-07T09:41:02.966Z,3.80
2022-10-07T09:43:34.784Z,2.30
2022-10-07T09:46:05.529Z,1.80
2022-10-07T09:48:36.617Z,4.60
2022-10-07T09:51:26.996Z,2.80
2022-10-07T09:54:03.004Z,2.20
2022-10-07T09:56:40.592Z,1.50
2022-10-07T09:59:23.241Z,2.10
2022-10-07T10:01:58.622Z,2.40
2022-10-07T10:04:33.516Z,2.10
2022-10-07T10:07:07.797Z,3.70
2022-10-07T10:09:38.729Z,1.50
2022-10-07T10:12:19.142Z,1.90
2022-10-07T10:14:52.112Z,1.60
2022-10-07T10:17:31.132Z,2.70
2022-10-07T10:20:28.565Z,1.10
2022-10-07T10:23:00.389Z,3.70
2022-10-07T10:26:17.478Z,3.50
2022-10-07T10:28:54.426Z,2.70
2022-10-07T10:31:34.249Z,2.60
2022-10-07T10:34:17.180Z,2.10
2022-10-07T10:36:54.649Z,3.10
2022-10-07T10:39:37.534Z,1.20
2022-10-07T10:42:13.776Z,4.90
2022-10-07T10:45:07.873Z,1.50
2022-10-07T10:47:51.102Z,3.00
2022-10-07T10:50:27.703Z,4.00
2022-10-07T10:53:08.581Z,2.80
2022-10-07T10:55:54.503Z,4.20
2022-10-07T10:58:36.221Z,3.50
2022-10-07T11:01:21.071Z,5.20
2022-10-07T11:04:18.121Z,1.90
2022-10-07T11:06:54.489Z,3.20
2022-10-07T11:09:33.442Z,2.60
2022-10-07T11:12:22.380Z,3.00
2022-10-07T11:14:58.943Z,1.80
2022-10-07T11:17:33.572Z,2.90
2022-10-07T11:20:17.288Z,1.40
2022-10-07T11:22:54.299Z,4.10
2022-10-07T11:25:34.151Z,4.70
2022-10-07T11:28:15.336Z,5.30
2022-10-07T11:30:56.865Z,4.00
2022-10-07T11:33:35.364Z,3.60
2022-10-07T11:36:14.862Z,4.00
2022-10-07T11:38:46.785Z,1.40
2022-10-07T11:41:25.325Z,4.60
2022-10-07T11:43:59.261Z,6.30
2022-10-07T11:46:34.019Z,2.40
2022-10-07T11:49:08.012Z,1.90
2022-10-07T11:51:42.425Z,1.60
2022-10-07T11:54:18.910Z,2.90
2022-10-07T11:56:52.540Z,2.10
2022-10-07T11:59:38.086Z,2.10
2022-10-07T12:02:42.068Z,4.10
2022-10-07T12:06:05.978Z,2.40
2022-10-07T12:08:38.632Z,1.80
2022-10-07T12:11:46.300Z,5.10
2022-10-07T12:14:44.130Z,2.20
2022-10-07T12:17:22.818Z,4.70
2022-10-07T12:20:23.160Z,4.40
2022-10-07T12:23:38.321Z,4.00
2022-10-07T12:26:51.330Z,5.40
2022-10-07T12:29:29.971Z,5.40
2022-10-07T12:32:00.984Z,3.00
2022-10-07T12:34:38.305Z,4.00
2022-10-07T12:37:42.195Z,6.10
2022-10-07T12:40:18.852Z,2.80
2022-10-07T12:42:55.850Z,7.60
2022-10-07T12:45:29.216Z,2.90
2022-10-07T12:48:03.278Z,4.50
2022-10-07T12:50:34.808Z,1.90
2022-10-07T12:53:07.117Z,4.70
2022-10-07T12:55:40.498Z,2.40
2022-10-07T12:58:45.574Z,1.40
2022-10-07T13:01:24.663Z,3.00
2022-10-07T13:04:23.585Z,3.10
2022-10-07T13:07:30.753Z,3.50
2022-10-07T13:10:30.284Z,3.70
2022-10-07T13:13:06.698Z,2.70
2022-10-07T13:15:42.782Z,2.40
2022-10-07T13:18:21.787Z,1.60
2022-10-07T13:21:19.768Z,6.30
2022-10-07T13:23:54.242Z,1.90
2022-10-07T13:26:26.789Z,3.80
2022-10-07T13:28:59.191Z,2.60
2022-10-07T13:31:33.323Z,4.70
2022-10-07T13:34:18.985Z,4.60
2022-10-07T13:36:49.925Z,2.40
2022-10-07T13:39:23.285Z,3.60
2022-10-07T13:41:56.371Z,4.00
2022-10-07T13:44:30.724Z,1.60
2022-10-07T13:47:03.613Z,2.50
2022-10-07T13:49:39.758Z,3.20
2022-10-07T13:52:21.313Z,2.10
2022-10-07T13:54:54.282Z,2.40
2022-10-07T13:57:26.586Z,4.20
2022-10-07T13:59:57.549Z,1.10
2022-10-07T14:02:28.847Z,3.10
2022-10-07T14:05:05.206Z,6.10
2022-10-07T14:07:42.421Z,2.70
2022-10-07T14:10:13.585Z,1.00
2022-10-07T14:12:47.543Z,1.90
2022-10-07T14:15:21.102Z,2.20
2022-10-07T14:17:54.639Z,3.30
2022-10-07T14:20:29.525Z,2.80
2022-10-07T14:23:02.348Z,2.00
2022-10-07T14:25:49.532Z,1.30
2022-10-07T14:28:28.729Z,1.70
2022-10-07T14:32:00.116Z,1.10
2022-10-07T14:35:00.836Z,4.00
2022-10-07T14:37:32.036Z,1.30
2022-10-07T14:40:02.508Z,2.90
2022-10-07T14:42:35.952Z,3.20
2022-10-07T14:45:11.241Z,3.50
2022-10-07T14:47:44.350Z,2.00
2022-10-07T14:50:19.932Z,2.30
2022-10-07T14:52:53.278Z,2.50
2022-10-07T14:55:27.249Z,3.30
2022-10-07T14:57:58.128Z,1.10
2022-10-07T15:00:32.854Z,2.60
2022-10-07T15:03:06.060Z,0.60
2022-10-07T15:05:38.331Z,1.00
2022-10-07T15:08:10.707Z,2.60
2022-10-07T15:10:42.655Z,2.50
2022-10-07T15:13:14.834Z,3.10
2022-10-07T15:15:47.174Z,1.30
2022-10-07T15:18:17.828Z,2.60
2022-10-07T15:20:55.211Z,5.00
2022-10-07T15:23:26.319Z,5.10
2022-10-07T15:25:56.942Z,2.80
2022-10-07T15:28:27.806Z,4.80
2022-10-07T15:31:06.152Z,9.50
2022-10-07T15:33:37.888Z,5.00
2022-10-07T15:36:09.505Z,1.20
2022-10-07T15:38:40.614Z,2.90
2022-10-07T15:41:18.218Z,2.30
2022-10-07T15:43:48.836Z,1.70
2022-10-07T15:46:19.283Z,2.50
2022-10-07T15:48:50.264Z,1.70
2022-10-07T15:51:21.072Z,2.70
2022-10-07T15:53:51.777Z,2.00
2022-10-07T15:56:23.113Z,3.60
2022-10-07T15:58:54.103Z,2.90
2022-10-07T16:01:26.451Z,2.40
2022-10-07T16:03:57.263Z,1.90
2022-10-07T16:06:30.095Z,2.00
2022-10-07T16:09:01.509Z,2.80
2022-10-07T16:11:34.662Z,4.80
2022-10-07T16:14:05.477Z,2.60
2022-10-07T16:16:36.782Z,3.30
2022-10-07T16:19:07.678Z,2.80
2022-10-07T16:21:40.476Z,6.00
2022-10-07T16:24:14.317Z,5.50
2022-10-07T16:26:46.036Z,4.00
2022-10-07T16:29:35.650Z,2.70
2022-10-07T16:32:08.492Z,2.30
2022-10-07T16:34:40.550Z,4.80
2022-10-07T16:37:11.704Z,13.50
2022-10-07T16:39:43.011Z,12.10
2022-10-07T16:42:13.684Z,12.60
2022-10-07T16:44:48.451Z,10.00
2022-10-07T16:47:20.901Z,5.80
2022-10-07T16:49:51.877Z,3.80
2022-10-07T16:52:22.212Z,4.50
2022-10-07T16:54:54.686Z,6.30
2022-10-07T16:57:25.878Z,5.50
2022-10-07T16:59:57.644Z,4.50
2022-10-07T17:02:29.897Z,3.70
2022-10-07T17:05:00.698Z,6.20
2022-10-07T17:07:31.017Z,4.20
2022-10-07T17:10:01.452Z,2.40
2022-10-07T17:12:32.120Z,4.50
2022-10-07T17:15:03.284Z,1.80
2022-10-07T17:17:33.818Z,3.90
2022-10-07T17:20:05.120Z,4.40
2022-10-07T17:22:35.518Z,4.50
2022-10-07T17:25:07.674Z,4.00
2022-10-07T17:27:38.131Z,4.70
2022-10-07T17:30:11.313Z,3.40
2022-10-07T17:32:42.302Z,3.20
2022-10-07T17:35:13.114Z,4.10
2022-10-07T17:37:44.188Z,5.00
2022-10-07T17:40:14.979Z,5.20
2022-10-07T17:42:45.836Z,9.30
2022-10-07T17:45:16.250Z,23.90
2022-10-07T17:47:47.214Z,19.60
2022-10-07T17:50:18.802Z,7.90
2022-10-07T17:52:49.705Z,10.10
2022-10-07T17:55:20.148Z,6.70
2022-10-07T17:57:51.164Z,6.40
2022-10-07T18:00:22.114Z,6.00
2022-10-07T18:02:53.747Z,7.50
2022-10-07T18:05:24.777Z,5.80
2022-10-07T18:07:58.250Z,4.60
2022-10-07T18:10:29.556Z,5.00
2022-10-07T18:13:17.587Z,4.20
2022-10-07T18:15:59.445Z,7.00
2022-10-07T18:18:31.062Z,5.10
2022-10-07T18:21:06.762Z,5.10
2022-10-07T18:23:38.428Z,5.10
2022-10-07T18:26:11.452Z,4.70
2022-10-07T18:28:42.945Z,7.50
2022-10-07T18:31:14.294Z,7.30
2022-10-07T18:33:46.212Z,5.30
2022-10-07T18:36:19.278Z,8.80
2022-10-07T18:38:49.938Z,7.90
2022-10-07T18:41:22.519Z,6.80
2022-10-07T18:43:56.801Z,6.00
2022-10-07T18:46:27.124Z,9.50
2022-10-07T18:48:57.489Z,8.30
2022-10-07T18:51:27.924Z,10.00
2022-10-07T18:53:58.576Z,5.60
2022-10-07T18:56:29.551Z,15.00
2022-10-07T18:59:00.887Z,18.70
2022-10-07T19:01:32.361Z,14.60
2022-10-07T19:04:04.380Z,19.50
2022-10-07T19:06:37.845Z,23.20
2022-10-07T19:09:10.322Z,21.30
2022-10-07T19:11:40.600Z,21.30
2022-10-07T19:14:11.576Z,19.10
2022-10-07T19:16:43.934Z,16.30
2022-10-07T19:19:17.152Z,11.70
2022-10-07T19:21:49.421Z,10.30
2022-10-07T19:24:21.163Z,7.60
2022-10-07T19:26:54.031Z,8.00
2022-10-07T19:29:24.778Z,7.10
2022-10-07T19:31:57.390Z,9.50
2022-10-07T19:34:27.814Z,7.90
2022-10-07T19:36:58.918Z,6.70
2022-10-07T19:39:29.242Z,9.70
2022-10-07T19:41:59.770Z,7.40
2022-10-07T19:44:31.748Z,7.40
2022-10-07T19:47:03.289Z,8.70
2022-10-07T19:49:34.019Z,7.40
2022-10-07T19:52:04.733Z,6.90
2022-10-07T19:54:36.354Z,6.50
2022-10-07T19:57:07.323Z,7.20
2022-10-07T19:59:37.647Z,5.30
2022-10-07T20:02:09.600Z,3.60
2022-10-07T20:04:41.321Z,4.50
2022-10-07T20:07:11.680Z,5.00
2022-10-07T20:09:42.446Z,6.10
2022-10-07T20:12:13.956Z,4.80
2022-10-07T20:14:45.491Z,5.80
2022-10-07T20:17:16.305Z,7.40
2022-10-07T20:19:47.027Z,5.80
2022-10-07T20:22:17.995Z,4.40
2022-10-07T20:24:49.045Z,6.20
2022-10-07T20:27:20.039Z,8.50
2022-10-07T20:30:02.345Z,6.70
2022-10-07T20:32:34.314Z,4.40
2022-10-07T20:35:06.758Z,4.30
2022-10-07T20:37:37.554Z,5.40
2022-10-07T20:40:28.006Z,8.90
2022-10-07T20:43:00.655Z,5.90
2022-10-07T20:45:51.314Z,5.10
2022-10-07T20:48:21.863Z,15.70
2022-10-07T20:50:53.815Z,19.00
2022-10-07T20:53:24.868Z,15.70
2022-10-07T20:55:55.629Z,11.50
2022-10-07T20:58:26.672Z,9.10
2022-10-07T21:00:57.241Z,8.70
2022-10-07T21:03:29.982Z,6.10
2022-10-07T21:06:00.495Z,6.80
2022-10-07T21:08:31.546Z,4.90
2022-10-07T21:11:04.880Z,6.80
2022-10-07T21:13:35.584Z,6.30
2022-10-07T21:16:08.251Z,5.50
2022-10-07T21:18:38.717Z,5.40
2022-10-07T21:21:11.764Z,4.30
2022-10-07T21:23:42.130Z,3.80
2022-10-07T21:26:13.514Z,3.50
2022-10-07T21:28:44.526Z,6.30
2022-10-07T21:31:17.438Z,4.10
2022-10-07T21:33:50.831Z,4.30
2022-10-07T21:36:23.701Z,4.60
2022-10-07T21:38:58.586Z,4.60
2022-10-07T21:41:31.037Z,3.60
2022-10-07T21:44:01.962Z,3.90
2022-10-07T21:46:33.812Z,2.90
2022-10-07T21:49:06.111Z,2.30
2022-10-07T21:51:36.816Z,4.30
2022-10-07T21:54:07.596Z,4.20
2022-10-07T21:56:37.929Z,3.10
2022-10-07T21:59:08.357Z,3.80
2022-10-07T22:01:39.149Z,4.70
2022-10-07T22:04:14.500Z,2.20
2022-10-07T22:07:02.793Z,4.20
2022-10-07T22:09:33.656Z,3.60
2022-10-07T22:12:05.320Z,2.20
2022-10-07T22:14:36.056Z,2.80
2022-10-07T22:17:06.901Z,3.70
2022-10-07T22:19:37.196Z,2.50
2022-10-07T22:22:07.965Z,4.80
2022-10-07T22:24:38.592Z,3.20
2022-10-07T22:27:08.929Z,3.80
2022-10-07T22:29:40.028Z,3.10
2022-10-07T22:32:10.366Z,4.20
2022-10-07T22:34:58.390Z,2.20
2022-10-07T22:37:30.175Z,2.90
2022-10-07T22:40:00.508Z,4.10
2022-10-07T22:42:30.822Z,2.70
2022-10-07T22:45:01.123Z,2.70
2022-10-07T22:47:31.413Z,2.80
2022-10-07T22:50:05.413Z,4.90
2022-10-07T22:52:36.193Z,2.00
2022-10-07T22:55:08.518Z,2.80
2022-10-07T22:57:38.973Z,2.90
2022-10-07T23:00:11.451Z,2.80
2022-10-07T23:02:42.075Z,5.40
2022-10-07T23:05:13.356Z,2.20
2022-10-07T23:07:43.840Z,2.70
2022-10-07T23:10:14.164Z,4.40
2022-10-07T23:12:44.709Z,1.80
2022-10-07T23:15:20.464Z,2.20
2022-10-07T23:17:50.766Z,4.30
2022-10-07T23:20:25.738Z,2.10
2022-10-07T23:22:56.016Z,3.10
2022-10-07T23:25:28.524Z,3.50
2022-10-07T23:27:59.532Z,2.80
2022-10-07T23:30:29.827Z,2.20
2022-10-07T23:33:00.094Z,3.40
2022-10-07T23:35:32.529Z,3.10
2022-10-07T23:38:02.832Z,2.90
2022-10-07T23:40:33.540Z,3.70
2022-10-07T23:43:04.342Z,3.60
2022-10-07T23:45:34.619Z,3.70
2022-10-07T23:48:05.207Z,2.10
2022-10-07T23:50:35.681Z,2.90
2022-10-07T23:53:05.964Z,3.40
2022-10-07T23:55:36.266Z,1.60
2022-10-07T23:58:06.946Z,3.20
